sensor_id;sensor_type;location;lat;lon;timestamp;P1;durP1;ratioP1;P2;durP2;ratioP2
16820;SDS011;8527;49.740;6.604;2023-02-28T00:03:07;4.38;;;2.20;;
16820;SDS011;8527;49.740;6.604;2023-02-28T00:08:05;6.53;;;2.47;;
16820;SDS011;8527;49.740;6.604;2023-02-28T00:13:06;4.85;;;2.70;;
16820;SDS011;8527;49.740;6.604;2023-02-28T00:18:06;7.28;;;3.03;;
16820;SDS011;8527;49.740;6.604;2023-02-28T00:23:04;4.85;;;2.70;;
16820;SDS011;8527;49.740;6.604;2023-02-28T00:28:03;6.55;;;2.58;;
16820;SDS011;8527;49.740;6.604;2023-02-28T00:33:07;6.97;;;3.08;;
16820;SDS011;8527;49.740;6.604;2023-02-28T00:38:05;6.50;;;2.88;;
16820;SDS011;8527;49.740;6.604;2023-02-28T00:43:04;5.53;;;2.80;;
16820;SDS011;8527;49.740;6.604;2023-02-28T00:48:13;6.40;;;2.75;;
16820;SDS011;8527;49.740;6.604;2023-02-28T00:53:11;7.10;;;3.42;;
16820;SDS011;8527;49.740;6.604;2023-02-28T00:58:10;9.20;;;3.85;;
16820;SDS011;8527;49.740;6.604;2023-02-28T01:03:08;5.30;;;2.70;;
16820;SDS011;8527;49.740;6.604;2023-02-28T01:08:09;6.20;;;3.13;;
16820;SDS011;8527;49.740;6.604;2023-02-28T01:13:11;12.05;;;3.53;;
16820;SDS011;8527;49.740;6.604;2023-02-28T01:18:12;9.82;;;3.60;;
16820;SDS011;8527;49.740;6.604;2023-02-28T01:23:13;11.73;;;4.30;;
16820;SDS011;8527;49.740;6.604;2023-02-28T01:28:11;10.23;;;4.32;;
16820;SDS011;8527;49.740;6.604;2023-02-28T01:33:12;9.32;;;3.20;;
16820;SDS011;8527;49.740;6.604;2023-02-28T01:38:13;9.65;;;3.33;;
16820;SDS011;8527;49.740;6.604;2023-02-28T01:43:16;8.70;;;3.45;;
16820;SDS011;8527;49.740;6.604;2023-02-28T01:48:25;9.93;;;3.58;;
16820;SDS011;8527;49.740;6.604;2023-02-28T01:53:29;9.40;;;4.35;;
16820;SDS011;8527;49.740;6.604;2023-02-28T01:58:30;8.82;;;4.00;;
16820;SDS011;8527;49.740;6.604;2023-02-28T02:03:29;5.57;;;2.95;;
16820;SDS011;8527;49.740;6.604;2023-02-28T02:08:31;7.22;;;2.85;;
16820;SDS011;8527;49.740;6.604;2023-02-28T02:13:33;10.73;;;4.00;;
16820;SDS011;8527;49.740;6.604;2023-02-28T02:18:52;12.75;;;4.30;;
16820;SDS011;8527;49.740;6.604;2023-02-28T02:29:54;9.82;;;3.85;;
16820;SDS011;8527;49.740;6.604;2023-02-28T02:35:19;8.75;;;3.42;;
16820;SDS011;8527;49.740;6.604;2023-02-28T02:40:29;7.00;;;2.70;;
16820;SDS011;8527;49.740;6.604;2023-02-28T02:45:34;9.60;;;3.30;;
16820;SDS011;8527;49.740;6.604;2023-02-28T02:50:44;10.57;;;3.35;;
16820;SDS011;8527;49.740;6.604;2023-02-28T02:55:47;8.25;;;3.70;;
16820;SDS011;8527;49.740;6.604;2023-02-28T03:00:50;7.82;;;3.20;;
16820;SDS011;8527;49.740;6.604;2023-02-28T03:05:57;9.98;;;2.80;;
16820;SDS011;8527;49.740;6.604;2023-02-28T03:11:11;9.15;;;3.72;;
16820;SDS011;8527;49.740;6.604;2023-02-28T03:16:17;13.57;;;3.40;;
16820;SDS011;8527;49.740;6.604;2023-02-28T03:21:30;11.80;;;3.65;;
16820;SDS011;8527;49.740;6.604;2023-02-28T03:31:37;5.90;;;3.20;;
16820;SDS011;8527;49.740;6.604;2023-02-28T03:36:43;5.82;;;2.72;;
16820;SDS011;8527;49.740;6.604;2023-02-28T03:41:51;8.50;;;2.97;;
16820;SDS011;8527;49.740;6.604;2023-02-28T03:46:54;5.85;;;3.00;;
16820;SDS011;8527;49.740;6.604;2023-02-28T03:52:01;6.07;;;3.22;;
16820;SDS011;8527;49.740;6.604;2023-02-28T03:57:03;5.60;;;3.05;;
16820;SDS011;8527;49.740;6.604;2023-02-28T04:02:08;7.10;;;3.83;;
16820;SDS011;8527;49.740;6.604;2023-02-28T04:07:09;8.80;;;3.75;;
16820;SDS011;8527;49.740;6.604;2023-02-28T04:12:09;7.47;;;3.80;;
16820;SDS011;8527;49.740;6.604;2023-02-28T04:17:07;6.82;;;3.25;;
16820;SDS011;8527;49.740;6.604;2023-02-28T04:22:11;8.63;;;4.35;;
16820;SDS011;8527;49.740;6.604;2023-02-28T04:27:13;10.27;;;4.25;;
16820;SDS011;8527;49.740;6.604;2023-02-28T04:32:15;9.70;;;4.07;;
16820;SDS011;8527;49.740;6.604;2023-02-28T04:37:16;10.57;;;4.20;;
16820;SDS011;8527;49.740;6.604;2023-02-28T04:42:14;9.40;;;4.68;;
16820;SDS011;8527;49.740;6.604;2023-02-28T04:47:13;11.70;;;5.35;;
16820;SDS011;8527;49.740;6.604;2023-02-28T04:52:11;12.05;;;5.28;;
16820;SDS011;8527;49.740;6.604;2023-02-28T04:57:15;14.05;;;5.75;;
16820;SDS011;8527;49.740;6.604;2023-02-28T05:02:16;7.32;;;4.25;;
16820;SDS011;8527;49.740;6.604;2023-02-28T05:07:16;12.40;;;6.40;;
16820;SDS011;8527;49.740;6.604;2023-02-28T05:12:19;13.45;;;6.13;;
16820;SDS011;8527;49.740;6.604;2023-02-28T05:17:23;16.65;;;6.43;;
16820;SDS011;8527;49.740;6.604;2023-02-28T05:22:24;18.98;;;6.70;;
16820;SDS011;8527;49.740;6.604;2023-02-28T05:27:25;12.32;;;6.03;;
16820;SDS011;8527;49.740;6.604;2023-02-28T05:32:24;18.55;;;6.90;;
16820;SDS011;8527;49.740;6.604;2023-02-28T05:37:23;16.58;;;7.68;;
16820;SDS011;8527;49.740;6.604;2023-02-28T05:42:21;17.63;;;7.00;;
16820;SDS011;8527;49.740;6.604;2023-02-28T05:47:22;15.50;;;6.90;;
16820;SDS011;8527;49.740;6.604;2023-02-28T05:52:20;19.00;;;8.40;;
16820;SDS011;8527;49.740;6.604;2023-02-28T05:57:19;21.77;;;8.50;;
16820;SDS011;8527;49.740;6.604;2023-02-28T06:02:17;17.25;;;7.75;;
16820;SDS011;8527;49.740;6.604;2023-02-28T06:07:19;18.73;;;9.40;;
16820;SDS011;8527;49.740;6.604;2023-02-28T06:12:17;10.77;;;5.15;;
16820;SDS011;8527;49.740;6.604;2023-02-28T06:17:19;17.42;;;8.13;;
16820;SDS011;8527;49.740;6.604;2023-02-28T06:22:22;20.35;;;8.63;;
16820;SDS011;8527;49.740;6.604;2023-02-28T06:27:20;17.73;;;7.78;;
16820;SDS011;8527;49.740;6.604;2023-02-28T06:32:19;22.33;;;9.27;;
16820;SDS011;8527;49.740;6.604;2023-02-28T06:37:18;15.30;;;6.43;;
16820;SDS011;8527;49.740;6.604;2023-02-28T06:42:19;17.77;;;8.20;;
16820;SDS011;8527;49.740;6.604;2023-02-28T06:47:19;12.25;;;6.50;;
16820;SDS011;8527;49.740;6.604;2023-02-28T06:52:18;11.32;;;4.93;;
16820;SDS011;8527;49.740;6.604;2023-02-28T06:57:19;27.67;;;7.38;;
16820;SDS011;8527;49.740;6.604;2023-02-28T07:02:20;13.27;;;6.22;;
16820;SDS011;8527;49.740;6.604;2023-02-28T07:07:18;15.57;;;6.90;;
16820;SDS011;8527;49.740;6.604;2023-02-28T07:12:16;8.27;;;5.47;;
16820;SDS011;8527;49.740;6.604;2023-02-28T07:17:17;11.32;;;5.82;;
16820;SDS011;8527;49.740;6.604;2023-02-28T07:22:16;11.80;;;6.40;;
16820;SDS011;8527;49.740;6.604;2023-02-28T07:27:14;14.13;;;6.32;;
16820;SDS011;8527;49.740;6.604;2023-02-28T07:32:21;12.88;;;6.70;;
16820;SDS011;8527;49.740;6.604;2023-02-28T07:37:20;18.67;;;8.20;;
16820;SDS011;8527;49.740;6.604;2023-02-28T07:42:18;12.00;;;5.78;;
16820;SDS011;8527;49.740;6.604;2023-02-28T07:47:28;12.93;;;6.03;;
16820;SDS011;8527;49.740;6.604;2023-02-28T07:52:27;17.55;;;6.50;;
16820;SDS011;8527;49.740;6.604;2023-02-28T07:57:25;17.67;;;8.10;;
16820;SDS011;8527;49.740;6.604;2023-02-28T08:02:32;13.75;;;6.45;;
16820;SDS011;8527;49.740;6.604;2023-02-28T08:07:31;15.40;;;6.43;;
16820;SDS011;8527;49.740;6.604;2023-02-28T08:12:30;14.93;;;7.78;;
16820;SDS011;8527;49.740;6.604;2023-02-28T08:17:33;15.02;;;6.03;;
16820;SDS011;8527;49.740;6.604;2023-02-28T08:22:37;16.70;;;7.10;;
16820;SDS011;8527;49.740;6.604;2023-02-28T08:27:36;13.52;;;4.80;;
16820;SDS011;8527;49.740;6.604;2023-02-28T08:32:37;14.40;;;6.85;;
16820;SDS011;8527;49.740;6.604;2023-02-28T08:37:36;13.98;;;6.25;;
16820;SDS011;8527;49.740;6.604;2023-02-28T08:42:38;16.52;;;6.43;;
16820;SDS011;8527;49.740;6.604;2023-02-28T08:47:40;13.70;;;5.65;;
16820;SDS011;8527;49.740;6.604;2023-02-28T08:52:42;12.07;;;6.25;;
16820;SDS011;8527;49.740;6.604;2023-02-28T08:57:41;11.40;;;6.20;;
16820;SDS011;8527;49.740;6.604;2023-02-28T09:02:45;12.80;;;6.82;;
16820;SDS011;8527;49.740;6.604;2023-02-28T09:07:44;13.88;;;7.07;;
16820;SDS011;8527;49.740;6.604;2023-02-28T09:12:43;12.13;;;6.05;;
16820;SDS011;8527;49.740;6.604;2023-02-28T09:17:47;13.32;;;6.32;;
16820;SDS011;8527;49.740;6.604;2023-02-28T09:23:03;12.68;;;4.93;;
16820;SDS011;8527;49.740;6.604;2023-02-28T09:28:11;17.48;;;6.13;;
16820;SDS011;8527;49.740;6.604;2023-02-28T09:33:22;13.45;;;6.07;;
16820;SDS011;8527;49.740;6.604;2023-02-28T09:38:24;9.13;;;4.43;;
16820;SDS011;8527;49.740;6.604;2023-02-28T09:43:25;13.40;;;5.32;;
16820;SDS011;8527;49.740;6.604;2023-02-28T09:48:33;11.23;;;5.22;;
16820;SDS011;8527;49.740;6.604;2023-02-28T09:53:38;11.60;;;5.00;;
16820;SDS011;8527;49.740;6.604;2023-02-28T09:58:38;10.75;;;4.68;;
16820;SDS011;8527;49.740;6.604;2023-02-28T10:03:53;12.70;;;5.43;;
16820;SDS011;8527;49.740;6.604;2023-02-28T10:09:01;14.63;;;5.25;;
16820;SDS011;8527;49.740;6.604;2023-02-28T10:14:10;14.60;;;5.00;;
16820;SDS011;8527;49.740;6.604;2023-02-28T10:19:17;16.40;;;6.15;;
16820;SDS011;8527;49.740;6.604;2023-02-28T10:24:28;9.30;;;4.88;;
16820;SDS011;8527;49.740;6.604;2023-02-28T10:29:33;9.27;;;5.32;;
16820;SDS011;8527;49.740;6.604;2023-02-28T10:34:40;11.80;;;4.30;;
16820;SDS011;8527;49.740;6.604;2023-02-28T10:39:41;13.70;;;5.38;;
16820;SDS011;8527;49.740;6.604;2023-02-28T10:44:48;11.20;;;5.80;;
16820;SDS011;8527;49.740;6.604;2023-02-28T10:50:08;9.50;;;4.93;;
16820;SDS011;8527;49.740;6.604;2023-02-28T10:55:25;10.27;;;5.57;;
16820;SDS011;8527;49.740;6.604;2023-02-28T11:00:24;13.48;;;5.72;;
16820;SDS011;8527;49.740;6.604;2023-02-28T11:05:32;13.18;;;6.22;;
16820;SDS011;8527;49.740;6.604;2023-02-28T11:10:36;12.55;;;5.45;;
16820;SDS011;8527;49.740;6.604;2023-02-28T11:15:37;18.65;;;6.30;;
16820;SDS011;8527;49.740;6.604;2023-02-28T11:20:39;17.38;;;5.78;;
16820;SDS011;8527;49.740;6.604;2023-02-28T11:25:38;16.30;;;6.90;;
16820;SDS011;8527;49.740;6.604;2023-02-28T11:30:37;14.15;;;7.50;;
16820;SDS011;8527;49.740;6.604;2023-02-28T11:35:44;17.92;;;7.75;;
16820;SDS011;8527;49.740;6.604;2023-02-28T11:40:46;15.45;;;6.82;;
16820;SDS011;8527;49.740;6.604;2023-02-28T11:45:57;13.75;;;6.95;;
16820;SDS011;8527;49.740;6.604;2023-02-28T11:51:09;16.75;;;7.70;;
16820;SDS011;8527;49.740;6.604;2023-02-28T11:56:21;15.93;;;7.45;;
16820;SDS011;8527;49.740;6.604;2023-02-28T12:01:37;14.88;;;5.85;;
16820;SDS011;8527;49.740;6.604;2023-02-28T12:06:49;11.23;;;5.40;;
16820;SDS011;8527;49.740;6.604;2023-02-28T12:11:59;16.30;;;6.53;;
16820;SDS011;8527;49.740;6.604;2023-02-28T12:17:09;12.52;;;6.45;;
16820;SDS011;8527;49.740;6.604;2023-02-28T12:22:27;10.93;;;5.97;;
16820;SDS011;8527;49.740;6.604;2023-02-28T12:27:28;17.95;;;7.93;;
16820;SDS011;8527;49.740;6.604;2023-02-28T12:32:30;13.95;;;5.53;;
16820;SDS011;8527;49.740;6.604;2023-02-28T12:37:38;17.58;;;8.00;;
16820;SDS011;8527;49.740;6.604;2023-02-28T12:42:44;22.35;;;9.25;;
16820;SDS011;8527;49.740;6.604;2023-02-28T12:47:50;17.05;;;6.82;;
16820;SDS011;8527;49.740;6.604;2023-02-28T12:52:58;9.93;;;5.85;;
16820;SDS011;8527;49.740;6.604;2023-02-28T12:58:04;22.23;;;7.03;;
16820;SDS011;8527;49.740;6.604;2023-02-28T13:09:02;12.43;;;6.50;;
16820;SDS011;8527;49.740;6.604;2023-02-28T13:14:03;13.55;;;6.50;;
16820;SDS011;8527;49.740;6.604;2023-02-28T13:19:08;14.05;;;6.60;;
16820;SDS011;8527;49.740;6.604;2023-02-28T13:24:11;15.63;;;6.50;;
16820;SDS011;8527;49.740;6.604;2023-02-28T13:29:46;27.15;;;5.97;;
16820;SDS011;8527;49.740;6.604;2023-02-28T13:45:34;13.20;;;7.18;;
16820;SDS011;8527;49.740;6.604;2023-02-28T13:50:36;12.63;;;6.72;;
16820;SDS011;8527;49.740;6.604;2023-02-28T13:55:41;12.77;;;5.10;;
16820;SDS011;8527;49.740;6.604;2023-02-28T14:06:07;11.60;;;6.07;;
16820;SDS011;8527;49.740;6.604;2023-02-28T14:11:26;10.02;;;5.93;;
16820;SDS011;8527;49.740;6.604;2023-02-28T14:16:35;20.00;;;7.05;;
16820;SDS011;8527;49.740;6.604;2023-02-28T14:21:38;23.00;;;6.55;;
16820;SDS011;8527;49.740;6.604;2023-02-28T14:26:51;14.00;;;6.07;;
16820;SDS011;8527;49.740;6.604;2023-02-28T14:32:01;17.02;;;7.35;;
16820;SDS011;8527;49.740;6.604;2023-02-28T14:37:04;16.90;;;7.30;;
16820;SDS011;8527;49.740;6.604;2023-02-28T14:47:30;10.60;;;5.65;;
16820;SDS011;8527;49.740;6.604;2023-02-28T14:52:31;16.83;;;6.55;;
16820;SDS011;8527;49.740;6.604;2023-02-28T14:57:33;31.90;;;6.55;;
16820;SDS011;8527;49.740;6.604;2023-02-28T15:02:37;13.07;;;6.32;;
16820;SDS011;8527;49.740;6.604;2023-02-28T15:07:40;14.50;;;6.78;;
16820;SDS011;8527;49.740;6.604;2023-02-28T15:12:41;15.07;;;6.45;;
16820;SDS011;8527;49.740;6.604;2023-02-28T15:17:51;11.00;;;5.82;;
16820;SDS011;8527;49.740;6.604;2023-02-28T15:22:53;16.55;;;7.13;;
16820;SDS011;8527;49.740;6.604;2023-02-28T15:27:57;14.52;;;6.88;;
16820;SDS011;8527;49.740;6.604;2023-02-28T15:33:02;11.07;;;6.13;;
16820;SDS011;8527;49.740;6.604;2023-02-28T15:38:03;13.80;;;6.88;;
16820;SDS011;8527;49.740;6.604;2023-02-28T15:43:16;14.07;;;7.43;;
16820;SDS011;8527;49.740;6.604;2023-02-28T15:48:19;13.50;;;7.22;;
16820;SDS011;8527;49.740;6.604;2023-02-28T15:53:21;15.85;;;7.32;;
16820;SDS011;8527;49.740;6.604;2023-02-28T15:58:25;13.18;;;6.82;;
16820;SDS011;8527;49.740;6.604;2023-02-28T16:03:25;12.07;;;5.28;;
16820;SDS011;8527;49.740;6.604;2023-02-28T16:08:25;14.25;;;7.00;;
16820;SDS011;8527;49.740;6.604;2023-02-28T16:13:29;13.23;;;6.97;;
16820;SDS011;8527;49.740;6.604;2023-02-28T16:18:30;23.40;;;5.93;;
16820;SDS011;8527;49.740;6.604;2023-02-28T16:23:29;15.35;;;6.72;;
16820;SDS011;8527;49.740;6.604;2023-02-28T16:28:33;24.95;;;8.48;;
16820;SDS011;8527;49.740;6.604;2023-02-28T16:33:33;17.83;;;7.43;;
16820;SDS011;8527;49.740;6.604;2023-02-28T16:38:32;11.80;;;5.90;;
16820;SDS011;8527;49.740;6.604;2023-02-28T16:43:33;17.33;;;6.45;;
16820;SDS011;8527;49.740;6.604;2023-02-28T16:48:34;16.77;;;7.85;;
16820;SDS011;8527;49.740;6.604;2023-02-28T16:53:38;12.45;;;6.60;;
16820;SDS011;8527;49.740;6.604;2023-02-28T16:58:40;25.58;;;8.98;;
16820;SDS011;8527;49.740;6.604;2023-02-28T17:03:41;24.98;;;8.73;;
16820;SDS011;8527;49.740;6.604;2023-02-28T17:08:39;23.35;;;6.90;;
16820;SDS011;8527;49.740;6.604;2023-02-28T17:13:40;21.60;;;8.35;;
16820;SDS011;8527;49.740;6.604;2023-02-28T17:18:39;13.45;;;6.55;;
16820;SDS011;8527;49.740;6.604;2023-02-28T17:23:40;16.33;;;6.85;;
16820;SDS011;8527;49.740;6.604;2023-02-28T17:28:42;12.63;;;6.13;;
16820;SDS011;8527;49.740;6.604;2023-02-28T17:33:40;16.00;;;7.30;;
16820;SDS011;8527;49.740;6.604;2023-02-28T17:38:39;16.60;;;7.80;;
16820;SDS011;8527;49.740;6.604;2023-02-28T17:43:37;21.17;;;7.43;;
16820;SDS011;8527;49.740;6.604;2023-02-28T17:48:39;18.73;;;7.93;;
16820;SDS011;8527;49.740;6.604;2023-02-28T17:53:37;20.05;;;8.55;;
16820;SDS011;8527;49.740;6.604;2023-02-28T17:58:35;38.78;;;13.02;;
16820;SDS011;8527;49.740;6.604;2023-02-28T18:03:46;22.80;;;8.43;;
16820;SDS011;8527;49.740;6.604;2023-02-28T18:08:44;20.42;;;8.52;;
16820;SDS011;8527;49.740;6.604;2023-02-28T18:13:44;26.35;;;10.95;;
16820;SDS011;8527;49.740;6.604;2023-02-28T18:18:46;20.88;;;8.93;;
16820;SDS011;8527;49.740;6.604;2023-02-28T18:23:45;25.13;;;9.77;;
16820;SDS011;8527;49.740;6.604;2023-02-28T18:28:47;14.18;;;7.70;;
16820;SDS011;8527;49.740;6.604;2023-02-28T18:33:49;17.95;;;8.57;;
16820;SDS011;8527;49.740;6.604;2023-02-28T18:38:49;22.70;;;9.07;;
16820;SDS011;8527;49.740;6.604;2023-02-28T18:43:48;25.95;;;10.68;;
16820;SDS011;8527;49.740;6.604;2023-02-28T18:48:50;23.75;;;11.15;;
16820;SDS011;8527;49.740;6.604;2023-02-28T18:53:49;19.98;;;9.82;;
16820;SDS011;8527;49.740;6.604;2023-02-28T18:58:47;22.67;;;10.55;;
16820;SDS011;8527;49.740;6.604;2023-02-28T19:03:46;29.08;;;11.00;;
16820;SDS011;8527;49.740;6.604;2023-02-28T19:08:51;20.75;;;9.50;;
16820;SDS011;8527;49.740;6.604;2023-02-28T19:13:50;22.00;;;10.52;;
16820;SDS011;8527;49.740;6.604;2023-02-28T19:18:48;38.72;;;13.38;;
16820;SDS011;8527;49.740;6.604;2023-02-28T19:23:52;25.17;;;10.82;;
16820;SDS011;8527;49.740;6.604;2023-02-28T19:28:50;30.60;;;12.55;;
16820;SDS011;8527;49.740;6.604;2023-02-28T19:33:49;29.98;;;12.30;;
16820;SDS011;8527;49.740;6.604;2023-02-28T19:38:49;43.17;;;15.18;;
16820;SDS011;8527;49.740;6.604;2023-02-28T19:43:51;40.95;;;14.00;;
16820;SDS011;8527;49.740;6.604;2023-02-28T19:48:52;59.85;;;19.10;;
16820;SDS011;8527;49.740;6.604;2023-02-28T19:53:53;72.60;;;20.08;;
16820;SDS011;8527;49.740;6.604;2023-02-28T19:58:51;101.38;;;26.33;;
16820;SDS011;8527;49.740;6.604;2023-02-28T20:03:50;77.00;;;26.33;;
16820;SDS011;8527;49.740;6.604;2023-02-28T20:08:55;42.92;;;18.30;;
16820;SDS011;8527;49.740;6.604;2023-02-28T20:13:56;31.70;;;14.90;;
16820;SDS011;8527;49.740;6.604;2023-02-28T20:19:02;25.80;;;12.88;;
16820;SDS011;8527;49.740;6.604;2023-02-28T20:24:08;31.60;;;13.73;;
16820;SDS011;8527;49.740;6.604;2023-02-28T20:29:07;26.27;;;12.05;;
16820;SDS011;8527;49.740;6.604;2023-02-28T20:34:05;30.17;;;12.18;;
16820;SDS011;8527;49.740;6.604;2023-02-28T20:39:04;23.75;;;9.50;;
16820;SDS011;8527;49.740;6.604;2023-02-28T20:44:05;21.40;;;9.10;;
16820;SDS011;8527;49.740;6.604;2023-02-28T20:49:04;23.92;;;10.48;;
16820;SDS011;8527;49.740;6.604;2023-02-28T20:54:02;26.83;;;10.70;;
16820;SDS011;8527;49.740;6.604;2023-02-28T20:59:05;110.13;;;23.17;;
16820;SDS011;8527;49.740;6.604;2023-02-28T21:04:09;66.43;;;20.15;;
16820;SDS011;8527;49.740;6.604;2023-02-28T21:09:08;60.38;;;16.25;;
16820;SDS011;8527;49.740;6.604;2023-02-28T21:14:11;59.35;;;17.00;;
16820;SDS011;8527;49.740;6.604;2023-02-28T21:19:11;38.97;;;14.10;;
16820;SDS011;8527;49.740;6.604;2023-02-28T21:24:10;21.60;;;9.00;;
16820;SDS011;8527;49.740;6.604;2023-02-28T21:29:12;46.25;;;16.50;;
16820;SDS011;8527;49.740;6.604;2023-02-28T21:34:11;40.40;;;13.45;;
16820;SDS011;8527;49.740;6.604;2023-02-28T21:39:15;37.78;;;13.27;;
16820;SDS011;8527;49.740;6.604;2023-02-28T21:44:19;25.40;;;10.80;;
16820;SDS011;8527;49.740;6.604;2023-02-28T21:49:19;22.42;;;10.05;;
16820;SDS011;8527;49.740;6.604;2023-02-28T21:54:18;21.95;;;10.73;;
16820;SDS011;8527;49.740;6.604;2023-02-28T21:59:25;25.77;;;10.60;;
16820;SDS011;8527;49.740;6.604;2023-02-28T22:04:26;24.10;;;11.43;;
16820;SDS011;8527;49.740;6.604;2023-02-28T22:09:27;23.02;;;10.43;;
16820;SDS011;8527;49.740;6.604;2023-02-28T22:14:30;28.02;;;11.20;;
16820;SDS011;8527;49.740;6.604;2023-02-28T22:19:29;28.48;;;11.85;;
16820;SDS011;8527;49.740;6.604;2023-02-28T22:24:29;32.75;;;12.20;;
16820;SDS011;8527;49.740;6.604;2023-02-28T22:29:34;25.45;;;10.18;;
16820;SDS011;8527;49.740;6.604;2023-02-28T22:34:36;21.88;;;9.13;;
16820;SDS011;8527;49.740;6.604;2023-02-28T22:39:34;27.88;;;10.07;;
16820;SDS011;8527;49.740;6.604;2023-02-28T22:44:37;21.70;;;9.98;;
16820;SDS011;8527;49.740;6.604;2023-02-28T22:49:36;20.98;;;9.45;;
16820;SDS011;8527;49.740;6.604;2023-02-28T22:54:36;28.73;;;10.10;;
16820;SDS011;8527;49.740;6.604;2023-02-28T22:59:37;27.08;;;9.13;;
16820;SDS011;8527;49.740;6.604;2023-02-28T23:04:36;31.45;;;10.35;;
16820;SDS011;8527;49.740;6.604;2023-02-28T23:09:34;22.60;;;9.57;;
16820;SDS011;8527;49.740;6.604;2023-02-28T23:14:47;24.17;;;9.85;;
16820;SDS011;8527;49.740;6.604;2023-02-28T23:19:51;24.27;;;9.63;;
16820;SDS011;8527;49.740;6.604;2023-02-28T23:24:51;24.80;;;10.10;;
16820;SDS011;8527;49.740;6.604;2023-02-28T23:29:58;27.40;;;9.35;;
16820;SDS011;8527;49.740;6.604;2023-02-28T23:35:08;19.52;;;9.07;;
16820;SDS011;8527;49.740;6.604;2023-02-28T23:40:09;19.00;;;7.85;;
16820;SDS011;8527;49.740;6.604;2023-02-28T23:45:13;18.67;;;7.70;;
16820;SDS011;8527;49.740;6.604;2023-02-28T23:50:15;18.02;;;8.38;;
16820;SDS011;8527;49.740;6.604;2023-02-28T23:55:16;24.05;;;8.13;;
